createdAt,value
2017-08-04T00:00:58.398Z,0
2017-08-04T00:01:58.087Z,0
2017-08-04T00:02:58.388Z,0
2017-08-04T00:03:58.389Z,0
2017-08-04T00:04:58.097Z,0
2017-08-04T00:05:58.361Z,0
2017-08-04T00:06:58.367Z,0
2017-08-04T00:07:58.365Z,0
2017-08-04T00:08:58.355Z,0
2017-08-04T00:09:58.359Z,0
2017-08-04T00:10:58.048Z,0
2017-08-04T00:11:58.356Z,0
2017-08-04T00:12:58.336Z,0
2017-08-04T00:13:58.018Z,0
2017-08-04T00:14:58.335Z,0
2017-08-04T00:15:58.339Z,0
2017-08-04T00:16:58.324Z,0
2017-08-04T00:17:58.321Z,0
2017-08-04T00:18:58.322Z,0
2017-08-04T00:19:58.306Z,0
2017-08-04T00:20:57.988Z,0
2017-08-04T00:21:58.286Z,0
2017-08-04T00:22:57.994Z,0
2017-08-04T00:23:57.977Z,0
2017-08-04T00:24:57.990Z,0
2017-08-04T00:25:58.265Z,0
2017-08-04T00:26:58.252Z,0
2017-08-04T00:27:58.257Z,0
2017-08-04T00:28:58.253Z,0
2017-08-04T00:29:58.254Z,0
2017-08-04T00:30:58.247Z,0
2017-08-04T00:31:58.236Z,0
2017-08-04T00:32:58.238Z,0
2017-08-04T00:33:58.223Z,0
2017-08-04T00:34:58.227Z,0
2017-08-04T00:35:58.204Z,0
2017-08-04T00:36:58.209Z,0
2017-08-04T00:37:58.205Z,0
2017-08-04T00:38:58.195Z,0
2017-08-04T00:39:58.200Z,0
2017-08-04T00:40:58.178Z,0
2017-08-04T00:41:58.181Z,0
2017-08-04T00:42:58.177Z,0
2017-08-04T00:43:58.163Z,0
2017-08-04T00:44:58.176Z,0
2017-08-04T00:45:58.160Z,0
2017-08-04T00:46:57.835Z,0
2017-08-04T00:47:58.159Z,0
2017-08-04T00:48:57.849Z,0
2017-08-04T00:49:58.134Z,0
2017-08-04T00:50:58.125Z,0
2017-08-04T00:51:58.128Z,0
2017-08-04T00:52:58.125Z,0
2017-08-04T00:53:58.122Z,0
2017-08-04T00:54:58.108Z,0
2017-08-04T00:55:58.096Z,0
2017-08-04T00:56:58.117Z,0
2017-08-04T00:57:58.093Z,0
2017-08-04T00:58:58.087Z,0
2017-08-04T00:59:58.084Z,0
2017-08-04T01:00:58.061Z,0
2017-08-04T01:01:58.066Z,0
2017-08-04T01:02:58.060Z,0
2017-08-04T01:03:57.752Z,0
2017-08-04T01:04:58.062Z,0
2017-08-04T01:05:58.040Z,0
2017-08-04T01:06:58.032Z,0
2017-08-04T01:07:57.727Z,0
2017-08-04T01:08:58.027Z,0
2017-08-04T01:09:58.027Z,0
2017-08-04T01:10:58.012Z,0
2017-08-04T01:11:58.012Z,0
2017-08-04T01:12:58.001Z,0
2017-08-04T01:13:57.993Z,0
2017-08-04T01:14:57.997Z,0
2017-08-04T01:15:57.978Z,0
2017-08-04T01:16:57.988Z,0
2017-08-04T01:17:57.961Z,0
2017-08-04T01:18:57.976Z,0
2017-08-04T01:19:57.969Z,0
2017-08-04T01:20:57.967Z,0
2017-08-04T01:21:57.947Z,0
2017-08-04T01:22:57.954Z,0
2017-08-04T01:23:57.933Z,0
2017-08-04T01:24:57.935Z,0
2017-08-04T01:25:57.618Z,0
2017-08-04T01:26:57.925Z,0
2017-08-04T01:27:57.910Z,0
2017-08-04T01:28:57.908Z,0
2017-08-04T01:29:57.908Z,0
2017-08-04T01:30:57.900Z,0
2017-08-04T01:31:57.888Z,0
2017-08-04T01:32:57.881Z,0
2017-08-04T01:33:57.889Z,0
2017-08-04T01:34:57.879Z,0
2017-08-04T01:35:57.868Z,0
2017-08-04T01:36:57.854Z,0
2017-08-04T01:37:57.553Z,0
2017-08-04T01:38:57.850Z,0
2017-08-04T01:39:57.852Z,0
2017-08-04T01:40:57.827Z,0
2017-08-04T01:41:57.828Z,0
2017-08-04T01:42:57.828Z,0
2017-08-04T01:43:57.826Z,0
2017-08-04T01:44:57.515Z,0
2017-08-04T01:46:16.705Z,0
2017-08-04T01:46:57.819Z,0
2017-08-04T01:47:57.790Z,0
2017-08-04T01:48:57.483Z,0
2017-08-04T01:49:57.782Z,0
2017-08-04T01:50:57.777Z,0
2017-08-04T01:51:57.766Z,0
2017-08-04T01:52:57.757Z,0
2017-08-04T01:53:57.773Z,0
2017-08-04T01:54:57.755Z,0
2017-08-04T01:55:57.752Z,0
2017-08-04T01:56:57.731Z,0
2017-08-04T01:57:57.733Z,0
2017-08-04T01:58:57.420Z,0
2017-08-04T01:59:57.719Z,0
2017-08-04T02:00:57.718Z,0
2017-08-04T02:01:57.720Z,0
2017-08-04T02:02:57.400Z,0
2017-08-04T02:03:57.392Z,0
2017-08-04T02:04:57.738Z,0
2017-08-04T02:05:57.676Z,0
2017-08-04T02:06:57.690Z,0
2017-08-04T02:07:57.678Z,0
2017-08-04T02:08:57.673Z,0
2017-08-04T02:09:57.674Z,0
2017-08-04T02:10:57.665Z,0
2017-08-04T02:11:57.350Z,0
2017-08-04T02:12:57.655Z,0
2017-08-04T02:13:57.641Z,0
2017-08-04T02:14:57.634Z,0
2017-08-04T02:15:57.628Z,0
2017-08-04T02:16:57.614Z,0
2017-08-04T02:17:57.613Z,0
2017-08-04T02:18:57.610Z,0
2017-08-04T02:19:57.596Z,0
2017-08-04T02:20:57.606Z,0
2017-08-04T02:21:57.295Z,0
2017-08-04T02:22:56.975Z,0
2017-08-04T02:23:57.579Z,0
2017-08-04T02:24:57.564Z,0
2017-08-04T02:25:57.584Z,0
2017-08-04T02:26:57.264Z,0
2017-08-04T02:27:57.545Z,0
2017-08-04T02:28:57.568Z,0
2017-08-04T02:29:57.548Z,0
2017-08-04T02:30:57.234Z,0
2017-08-04T02:31:57.522Z,0
2017-08-04T02:32:57.233Z,0
2017-08-04T02:33:57.521Z,0
2017-08-04T02:34:57.227Z,0
2017-08-04T02:35:56.901Z,0
2017-08-04T02:36:57.199Z,0
2017-08-04T02:37:57.204Z,0
2017-08-04T02:38:56.889Z,0
2017-08-04T02:39:57.488Z,0
2017-08-04T02:40:57.470Z,0
2017-08-04T02:41:57.169Z,0
2017-08-04T02:42:57.156Z,0
2017-08-04T02:43:57.473Z,0
2017-08-04T02:44:57.461Z,0
2017-08-04T02:45:56.845Z,0
2017-08-04T02:46:57.453Z,0
2017-08-04T02:47:57.450Z,0
2017-08-04T02:48:57.139Z,0
2017-08-04T02:49:57.429Z,0
2017-08-04T02:50:57.430Z,0
2017-08-04T02:51:57.121Z,0
2017-08-04T02:52:57.113Z,0
2017-08-04T02:53:57.102Z,0
2017-08-04T02:54:57.115Z,0
2017-08-04T02:55:57.088Z,0
2017-08-04T02:56:57.396Z,0
2017-08-04T02:57:57.388Z,0
2017-08-04T02:58:57.373Z,0
2017-08-04T02:59:57.376Z,0
2017-08-04T03:00:57.059Z,0
2017-08-04T03:01:57.056Z,0
2017-08-04T03:02:57.059Z,0
2017-08-04T03:03:57.354Z,0
2017-08-04T03:04:57.332Z,0
2017-08-04T03:05:57.028Z,0
2017-08-04T03:06:57.027Z,0
2017-08-04T03:07:57.328Z,0
2017-08-04T03:08:57.009Z,0
2017-08-04T03:09:57.330Z,0
2017-08-04T03:10:57.305Z,0
2017-08-04T03:11:57.297Z,0
2017-08-04T03:12:56.994Z,0
2017-08-04T03:13:57.281Z,0
2017-08-04T03:14:56.973Z,0
2017-08-04T03:15:56.974Z,0
2017-08-04T03:16:57.259Z,0
2017-08-04T03:17:57.265Z,0
2017-08-04T03:18:57.268Z,0
2017-08-04T03:19:57.243Z,0
2017-08-04T03:20:57.234Z,4
2017-08-04T03:21:57.224Z,4
2017-08-04T03:22:57.229Z,4
2017-08-04T03:23:57.215Z,4
2017-08-04T03:24:57.216Z,4
2017-08-04T03:25:56.910Z,8
2017-08-04T03:26:57.207Z,8
2017-08-04T03:27:57.199Z,4
2017-08-04T03:28:57.191Z,8
2017-08-04T03:29:57.185Z,12
2017-08-04T03:30:57.188Z,12
2017-08-04T03:31:57.167Z,12
2017-08-04T03:32:57.166Z,16
2017-08-04T03:33:57.152Z,20
2017-08-04T03:34:57.136Z,24
2017-08-04T03:35:57.145Z,24
2017-08-04T03:36:57.161Z,32
2017-08-04T03:37:57.121Z,36
2017-08-04T03:38:57.127Z,40
2017-08-04T03:39:57.127Z,48
2017-08-04T03:40:57.107Z,52
2017-08-04T03:41:57.110Z,56
2017-08-04T03:42:57.101Z,64
2017-08-04T03:43:57.085Z,72
2017-08-04T03:44:57.073Z,80
2017-08-04T03:45:57.100Z,88
2017-08-04T03:46:57.079Z,100
2017-08-04T03:47:57.063Z,116
2017-08-04T03:48:57.060Z,136
2017-08-04T03:49:57.053Z,160
2017-08-04T03:50:56.744Z,188
2017-08-04T03:51:57.029Z,216
2017-08-04T03:52:57.026Z,240
2017-08-04T03:53:57.027Z,268
2017-08-04T03:54:57.024Z,296
2017-08-04T03:55:57.011Z,328
2017-08-04T03:56:57.010Z,360
2017-08-04T03:57:57.007Z,404
2017-08-04T03:58:56.995Z,452
2017-08-04T03:59:56.985Z,508
2017-08-04T04:00:56.996Z,572
2017-08-04T04:01:56.666Z,632
2017-08-04T04:02:56.968Z,696
2017-08-04T04:03:56.992Z,800
2017-08-04T04:04:56.964Z,900
2017-08-04T04:05:56.974Z,948
2017-08-04T04:06:56.336Z,1036
2017-08-04T04:07:56.928Z,1140
2017-08-04T04:08:56.959Z,1204
2017-08-04T04:09:56.932Z,1172
2017-08-04T04:10:56.934Z,1188
2017-08-04T04:11:56.621Z,1192
2017-08-04T04:12:56.922Z,1284
2017-08-04T04:13:56.898Z,1368
2017-08-04T04:14:56.905Z,1404
2017-08-04T04:15:56.887Z,1528
2017-08-04T04:16:56.875Z,1648
2017-08-04T04:17:56.871Z,1880
2017-08-04T04:18:56.878Z,2176
2017-08-04T04:19:56.856Z,2544
2017-08-04T04:20:56.871Z,2608
2017-08-04T04:21:56.851Z,2788
2017-08-04T04:22:56.847Z,3008
2017-08-04T04:23:56.834Z,2976
2017-08-04T04:24:56.820Z,2908
2017-08-04T04:25:56.833Z,3068
2017-08-04T04:26:56.813Z,3580
2017-08-04T04:27:56.811Z,4232
2017-08-04T04:28:56.802Z,4144
2017-08-04T04:29:56.789Z,3948
2017-08-04T04:30:56.493Z,4036
2017-08-04T04:31:56.485Z,4396
2017-08-04T04:32:56.781Z,4460
2017-08-04T04:33:56.169Z,4560
2017-08-04T04:34:56.761Z,4596
2017-08-04T04:35:56.752Z,4964
2017-08-04T04:36:56.454Z,5512
2017-08-04T04:37:56.754Z,6020
2017-08-04T04:38:56.744Z,5856
2017-08-04T04:39:56.728Z,5172
2017-08-04T04:40:56.736Z,4412
2017-08-04T04:41:56.714Z,3884
2017-08-04T04:42:56.715Z,3820
2017-08-04T04:43:56.712Z,3808
2017-08-04T04:44:56.704Z,3600
2017-08-04T04:45:56.694Z,3828
2017-08-04T04:46:56.374Z,3932
2017-08-04T04:47:56.679Z,4104
2017-08-04T04:48:56.670Z,4236
2017-08-04T04:49:56.668Z,4560
2017-08-04T04:50:56.668Z,5000
2017-08-04T04:51:56.649Z,5636
2017-08-04T04:52:56.642Z,6240
2017-08-04T04:53:56.629Z,6956
2017-08-04T04:54:56.631Z,7768
2017-08-04T04:55:56.616Z,10496
2017-08-04T04:56:56.605Z,11780
2017-08-04T04:57:56.306Z,8688
2017-08-04T04:58:56.615Z,10796
2017-08-04T04:59:56.613Z,11356
2017-08-04T05:00:56.593Z,15808
2017-08-04T05:01:56.595Z,16256
2017-08-04T05:02:56.575Z,15808
2017-08-04T05:03:56.566Z,13852
2017-08-04T05:04:56.569Z,15712
2017-08-04T05:05:56.568Z,15140
2017-08-04T05:06:56.550Z,10932
2017-08-04T05:07:56.550Z,9640
2017-08-04T05:08:56.540Z,12188
2017-08-04T05:09:56.528Z,14824
2017-08-04T05:10:56.526Z,14064
2017-08-04T05:11:56.524Z,13040
2017-08-04T05:12:56.526Z,15408
2017-08-04T05:13:56.496Z,15672
2017-08-04T05:14:55.881Z,23136
2017-08-04T05:15:56.490Z,21152
2017-08-04T05:16:56.178Z,10984
2017-08-04T05:17:56.477Z,21728
2017-08-04T05:18:56.168Z,20544
2017-08-04T05:19:56.460Z,25344
2017-08-04T05:20:56.456Z,25760
2017-08-04T05:21:56.455Z,25888
2017-08-04T05:22:56.446Z,24096
2017-08-04T05:23:56.441Z,26752
2017-08-04T05:24:56.424Z,23840
2017-08-04T05:25:56.430Z,25376
2017-08-04T05:26:56.422Z,26528
2017-08-04T05:27:56.423Z,16488
2017-08-04T05:28:56.413Z,16180
2017-08-04T05:29:56.407Z,14088
2017-08-04T05:30:56.393Z,15672
2017-08-04T05:31:56.071Z,15708
2017-08-04T05:32:56.370Z,17824
2017-08-04T05:33:56.075Z,21088
2017-08-04T05:34:56.368Z,32384
2017-08-04T05:35:56.358Z,22144
2017-08-04T05:36:56.349Z,21760
2017-08-04T05:37:56.334Z,19456
2017-08-04T05:38:56.339Z,17600
2017-08-04T05:39:56.337Z,24800
2017-08-04T05:40:56.328Z,20096
2017-08-04T05:41:56.317Z,17008
2017-08-04T05:42:56.324Z,19296
2017-08-04T05:43:56.305Z,14152
2017-08-04T05:44:56.011Z,14700
2017-08-04T05:45:56.325Z,15720
2017-08-04T05:46:56.282Z,27872
2017-08-04T05:47:56.291Z,18592
2017-08-04T05:48:56.269Z,23872
2017-08-04T05:49:56.299Z,29536
2017-08-04T05:50:55.965Z,18240
2017-08-04T05:51:56.254Z,35904
2017-08-04T05:52:55.963Z,36832
2017-08-04T05:53:56.251Z,30144
2017-08-04T05:54:56.242Z,35040
2017-08-04T05:55:55.936Z,35904
2017-08-04T05:56:56.223Z,28288
2017-08-04T05:57:55.922Z,18560
2017-08-04T05:58:56.210Z,33472
2017-08-04T05:59:56.207Z,47648
2017-08-04T06:00:55.908Z,33760
2017-08-04T06:01:56.207Z,41696
2017-08-04T06:02:56.201Z,37440
2017-08-04T06:03:55.880Z,42176
2017-08-04T06:04:55.874Z,30880
2017-08-04T06:05:56.169Z,37120
2017-08-04T06:06:55.873Z,44160
2017-08-04T06:07:56.168Z,46048
2017-08-04T06:08:56.163Z,45344
2017-08-04T06:09:56.155Z,32320
2017-08-04T06:10:56.142Z,41280
2017-08-04T06:11:56.137Z,42432
2017-08-04T06:12:56.147Z,31968
2017-08-04T06:13:56.126Z,38496
2017-08-04T06:14:56.128Z,30944
2017-08-04T06:15:56.124Z,30624
2017-08-04T06:16:56.122Z,37376
2017-08-04T06:17:55.817Z,33760
2017-08-04T06:18:56.112Z,30080
2017-08-04T06:19:56.097Z,46304
2017-08-04T06:20:56.098Z,28832
2017-08-04T06:21:56.094Z,29344
2017-08-04T06:22:55.785Z,29984
2017-08-04T06:23:56.079Z,24576
2017-08-04T06:24:56.084Z,24864
2017-08-04T06:25:56.074Z,26944
2017-08-04T06:26:56.064Z,27904
2017-08-04T06:27:56.060Z,27392
2017-08-04T06:28:56.055Z,32384
2017-08-04T06:29:55.756Z,27968
2017-08-04T06:30:56.054Z,28800
2017-08-04T06:31:56.047Z,29472
2017-08-04T06:32:56.039Z,28352
2017-08-04T06:33:56.042Z,34528
2017-08-04T06:34:55.425Z,22816
2017-08-04T06:35:56.022Z,24704
2017-08-04T06:36:55.720Z,26080
2017-08-04T06:37:56.023Z,25728
2017-08-04T06:38:56.037Z,27360
2017-08-04T06:39:55.710Z,29632
2017-08-04T06:40:56.012Z,32320
2017-08-04T06:41:55.998Z,38432
2017-08-04T06:42:56.005Z,35584
2017-08-04T06:43:55.990Z,43808
2017-08-04T06:44:55.976Z,34976
2017-08-04T06:45:55.981Z,33152
2017-08-04T06:46:55.989Z,27328
2017-08-04T06:47:55.974Z,26688
2017-08-04T06:48:55.982Z,26144
2017-08-04T06:49:55.669Z,24928
2017-08-04T06:50:55.659Z,27872
2017-08-04T06:51:55.663Z,29184
2017-08-04T06:52:55.658Z,30240
2017-08-04T06:53:55.968Z,44768
2017-08-04T06:54:55.952Z,25408
2017-08-04T06:55:55.951Z,22272
2017-08-04T06:56:55.643Z,20960
2017-08-04T06:57:55.932Z,21792
2017-08-04T06:58:55.928Z,22144
2017-08-04T06:59:55.930Z,40864
2017-08-04T07:00:55.936Z,21728
2017-08-04T07:01:55.924Z,21952
2017-08-04T07:02:55.918Z,22816
2017-08-04T07:03:55.914Z,23616
2017-08-04T07:04:55.918Z,25632
2017-08-04T07:05:55.901Z,31360
2017-08-04T07:06:55.894Z,33536
2017-08-04T07:07:55.896Z,79328
2017-08-04T07:08:55.904Z,80000
2017-08-04T07:09:55.885Z,54368
2017-08-04T07:10:55.890Z,86176
2017-08-04T07:11:55.585Z,54560
2017-08-04T07:12:55.875Z,61344
2017-08-04T07:13:55.878Z,95840
2017-08-04T07:14:55.869Z,47008
2017-08-04T07:15:55.875Z,74112
2017-08-04T07:16:55.876Z,37984
2017-08-04T07:17:55.866Z,40224
2017-08-04T07:18:55.862Z,45184
2017-08-04T07:19:55.552Z,37984
2017-08-04T07:20:55.545Z,92864
2017-08-04T07:21:55.850Z,85888
2017-08-04T07:22:55.835Z,84512
2017-08-04T07:23:55.525Z,95200
2017-08-04T07:24:55.840Z,102752
2017-08-04T07:25:55.831Z,55456
2017-08-04T07:26:55.831Z,43104
2017-08-04T07:27:55.521Z,40960
2017-08-04T07:28:55.806Z,43456
2017-08-04T07:29:55.804Z,43904
2017-08-04T07:30:55.808Z,55360
2017-08-04T07:31:55.816Z,57056
2017-08-04T07:32:55.501Z,81504
2017-08-04T07:33:55.803Z,81632
2017-08-04T07:34:55.793Z,71968
2017-08-04T07:35:55.793Z,44864
2017-08-04T07:36:55.484Z,35072
2017-08-04T07:37:55.782Z,35680
2017-08-04T07:38:55.480Z,43232
2017-08-04T07:39:55.805Z,41952
2017-08-04T07:40:55.170Z,71968
2017-08-04T07:41:55.772Z,33760
2017-08-04T07:42:55.467Z,30912
2017-08-04T07:43:55.463Z,28544
2017-08-04T07:44:55.768Z,30272
2017-08-04T07:45:55.769Z,35488
2017-08-04T07:46:55.453Z,43584
2017-08-04T07:47:55.748Z,82112
2017-08-04T07:48:55.446Z,51840
2017-08-04T07:49:55.736Z,106112
2017-08-04T07:50:55.748Z,62848
2017-08-04T07:51:55.731Z,67072
2017-08-04T07:52:55.735Z,58880
2017-08-04T07:53:55.733Z,42432
2017-08-04T07:54:55.425Z,77152
2017-08-04T07:55:55.434Z,85600
2017-08-04T07:56:55.424Z,61440
2017-08-04T07:57:55.722Z,48192
2017-08-04T07:58:55.413Z,76704
2017-08-04T07:59:55.706Z,82656
2017-08-04T08:00:55.412Z,67520
2017-08-04T08:01:55.706Z,98688
2017-08-04T08:02:55.699Z,90592
2017-08-04T08:03:55.698Z,88096
2017-08-04T08:04:55.689Z,69792
2017-08-04T08:05:55.697Z,85472
2017-08-04T08:06:55.690Z,84800
2017-08-04T08:07:55.698Z,108704
2017-08-04T08:08:55.676Z,100736
2017-08-04T08:09:55.373Z,90752
2017-08-04T08:10:55.662Z,65920
2017-08-04T08:11:55.673Z,109472
2017-08-04T08:12:55.669Z,101152
2017-08-04T08:13:55.678Z,102848
2017-08-04T08:14:55.368Z,100608
2017-08-04T08:15:55.665Z,103904
2017-08-04T08:16:55.682Z,102976
2017-08-04T08:17:55.663Z,81056
2017-08-04T08:18:55.655Z,97568
2017-08-04T08:19:55.655Z,76032
2017-08-04T08:20:55.640Z,72960
2017-08-04T08:21:55.662Z,63872
2017-08-04T08:22:55.648Z,78240
2017-08-04T08:23:55.346Z,92192
2017-08-04T08:24:55.340Z,105120
2017-08-04T08:25:55.350Z,104352
2017-08-04T08:26:55.633Z,92032
2017-08-04T08:27:55.336Z,76640
2017-08-04T08:28:55.340Z,72768
2017-08-04T08:29:55.646Z,66144
2017-08-04T08:30:55.534Z,67264
2017-08-04T08:31:55.344Z,61472
2017-08-04T08:32:55.337Z,63872
2017-08-04T08:33:55.321Z,62336
2017-08-04T08:34:55.636Z,70496
2017-08-04T08:35:55.639Z,85024
2017-08-04T08:36:55.642Z,74016
2017-08-04T08:37:55.638Z,75808
2017-08-04T08:38:55.641Z,74784
2017-08-04T08:39:55.650Z,76992
2017-08-04T08:40:55.640Z,81728
2017-08-04T08:41:55.621Z,86848
2017-08-04T08:42:55.627Z,66624
2017-08-04T08:43:55.632Z,110432
2017-08-04T08:44:55.611Z,129856
2017-08-04T08:45:55.625Z,145024
2017-08-04T08:46:55.310Z,80864
2017-08-04T08:47:55.305Z,64800
2017-08-04T08:48:55.627Z,68128
2017-08-04T08:49:55.610Z,57568
2017-08-04T08:50:55.604Z,59040
2017-08-04T08:51:55.303Z,57024
2017-08-04T08:52:55.621Z,69728
2017-08-04T08:53:55.593Z,64480
2017-08-04T08:54:55.297Z,68960
2017-08-04T08:55:55.603Z,87552
2017-08-04T08:56:55.598Z,72064
2017-08-04T08:57:55.327Z,77216
2017-08-04T08:58:55.297Z,71776
2017-08-04T08:59:55.291Z,86880
2017-08-04T09:00:55.605Z,89888
2017-08-04T09:01:55.587Z,78976
2017-08-04T09:02:55.287Z,69280
2017-08-04T09:03:55.579Z,52896
2017-08-04T09:04:55.595Z,61344
2017-08-04T09:05:55.595Z,66784
2017-08-04T09:06:55.272Z,75456
2017-08-04T09:07:55.584Z,111808
2017-08-04T09:08:55.270Z,116800
2017-08-04T09:09:55.570Z,104192
2017-08-04T09:10:55.578Z,118304
2017-08-04T09:11:55.566Z,127264
2017-08-04T09:12:55.274Z,122752
2017-08-04T09:13:55.253Z,118976
2017-08-04T09:14:55.550Z,109472
2017-08-04T09:15:55.570Z,97024
2017-08-04T09:16:55.550Z,97280
2017-08-04T09:17:55.253Z,106144
2017-08-04T09:18:55.770Z,107936
2017-08-04T09:19:55.557Z,106112
2017-08-04T09:20:55.557Z,101408
2017-08-04T09:21:55.551Z,98304
2017-08-04T09:22:55.551Z,94048
2017-08-04T09:23:55.554Z,96768
2017-08-04T09:24:55.228Z,96576
2017-08-04T09:25:55.236Z,94816
2017-08-04T09:26:55.238Z,93376
2017-08-04T09:27:55.240Z,92064
2017-08-04T09:28:55.531Z,90784
2017-08-04T09:29:55.217Z,90944
2017-08-04T09:30:55.219Z,92128
2017-08-04T09:31:55.536Z,91712
2017-08-04T09:32:55.508Z,92064
2017-08-04T09:33:55.528Z,92000
2017-08-04T09:34:55.514Z,89024
2017-08-04T09:35:55.514Z,85440
2017-08-04T09:36:55.502Z,84352
2017-08-04T09:37:55.513Z,84896
2017-08-04T09:38:55.504Z,84928
2017-08-04T09:39:55.186Z,84960
2017-08-04T09:40:55.501Z,83936
2017-08-04T09:41:55.182Z,82144
2017-08-04T09:42:55.485Z,82880
2017-08-04T09:43:55.479Z,84704
2017-08-04T09:44:55.485Z,87104
2017-08-04T09:45:55.478Z,87680
2017-08-04T09:46:55.479Z,88384
2017-08-04T09:47:55.480Z,88928
2017-08-04T09:48:55.466Z,89056
2017-08-04T09:49:55.474Z,90144
2017-08-04T09:50:55.464Z,90560
2017-08-04T09:51:55.172Z,90528
2017-08-04T09:52:55.167Z,89088
2017-08-04T09:53:55.663Z,87936
2017-08-04T09:54:55.450Z,86944
2017-08-04T09:55:55.459Z,85536
2017-08-04T09:56:55.459Z,84832
2017-08-04T09:57:55.455Z,84736
2017-08-04T09:58:55.454Z,87584
2017-08-04T09:59:55.346Z,89312
2017-08-04T10:01:09.090Z,92416
2017-08-04T10:01:55.435Z,93440
2017-08-04T10:02:55.439Z,95040
2017-08-04T10:03:55.476Z,94432
2017-08-04T10:04:55.639Z,94848
2017-08-04T10:05:55.635Z,96768
2017-08-04T10:06:55.486Z,98144
2017-08-04T10:07:55.435Z,98560
2017-08-04T10:08:54.830Z,99104
2017-08-04T10:09:55.449Z,99456
2017-08-04T10:10:55.435Z,99264
2017-08-04T10:11:55.424Z,98880
2017-08-04T10:12:55.416Z,98752
2017-08-04T10:13:55.409Z,97888
2017-08-04T10:14:55.416Z,98048
2017-08-04T10:15:55.411Z,98592
2017-08-04T10:16:55.406Z,99040
2017-08-04T10:17:55.409Z,101216
2017-08-04T10:18:55.429Z,105088
2017-08-04T10:19:55.409Z,108672
2017-08-04T10:20:55.416Z,108192
2017-08-04T10:21:55.406Z,105920
2017-08-04T10:22:55.396Z,104512
2017-08-04T10:23:55.404Z,107392
2017-08-04T10:24:55.402Z,108576
2017-08-04T10:25:55.412Z,107488
2017-08-04T10:26:55.385Z,107904
2017-08-04T10:27:55.392Z,107136
2017-08-04T10:28:55.387Z,107488
2017-08-04T10:29:55.382Z,106944
2017-08-04T10:30:55.381Z,108256
2017-08-04T10:31:55.390Z,110880
2017-08-04T10:32:55.097Z,119424
2017-08-04T10:33:55.385Z,120320
2017-08-04T10:34:55.385Z,122144
2017-08-04T10:35:55.385Z,121632
2017-08-04T10:36:55.385Z,120096
2017-08-04T10:37:55.386Z,119552
2017-08-04T10:38:55.386Z,118944
2017-08-04T10:39:55.361Z,120096
2017-08-04T10:40:55.583Z,123328
2017-08-04T10:41:55.281Z,130496
2017-08-04T10:42:55.353Z,62208
2017-08-04T10:43:55.347Z,145856
2017-08-04T10:44:55.366Z,109344
2017-08-04T10:45:55.354Z,97184
2017-08-04T10:46:55.340Z,125952
2017-08-04T10:47:55.033Z,112864
2017-08-04T10:48:55.344Z,123680
2017-08-04T10:49:55.354Z,104032
2017-08-04T10:50:55.331Z,136640
2017-08-04T10:51:55.338Z,39232
2017-08-04T10:52:55.028Z,137248
2017-08-04T10:53:55.032Z,136704
2017-08-04T10:54:55.344Z,70784
2017-08-04T10:55:55.342Z,143040
2017-08-04T10:56:55.327Z,131104
2017-08-04T10:57:55.327Z,40032
2017-08-04T10:58:55.318Z,142304
2017-08-04T10:59:55.024Z,137248
2017-08-04T11:00:55.325Z,47744
2017-08-04T11:01:55.013Z,44064
2017-08-04T11:02:55.325Z,48864
2017-08-04T11:03:55.012Z,58560
2017-08-04T11:04:55.305Z,85024
2017-08-04T11:05:55.300Z,60160
2017-08-04T11:06:55.311Z,56032
2017-08-04T11:07:55.301Z,57152
2017-08-04T11:08:55.322Z,53696
2017-08-04T11:09:55.304Z,49312
2017-08-04T11:10:54.980Z,149408
2017-08-04T11:11:55.306Z,112160
2017-08-04T11:12:55.286Z,138624
2017-08-04T11:13:55.287Z,85536
2017-08-04T11:14:54.985Z,53312
2017-08-04T11:15:55.276Z,86272
2017-08-04T11:16:55.319Z,97344
2017-08-04T11:17:54.989Z,42240
2017-08-04T11:18:54.986Z,49792
2017-08-04T11:19:55.282Z,64032
2017-08-04T11:20:55.286Z,148288
2017-08-04T11:21:55.491Z,142976
2017-08-04T11:22:55.480Z,137504
2017-08-04T11:23:55.272Z,133568
2017-08-04T11:24:55.272Z,48736
2017-08-04T11:25:55.263Z,131552
2017-08-04T11:26:55.272Z,134080
2017-08-04T11:27:55.265Z,69344
2017-08-04T11:28:54.966Z,132992
2017-08-04T11:29:55.262Z,75040
2017-08-04T11:30:55.247Z,129344
2017-08-04T11:31:54.955Z,33376
2017-08-04T11:32:55.262Z,43136
2017-08-04T11:33:55.258Z,54592
2017-08-04T11:34:55.255Z,49568
2017-08-04T11:35:55.248Z,42240
2017-08-04T11:36:55.246Z,48672
2017-08-04T11:37:55.246Z,47040
2017-08-04T11:41:34.282Z,80672
2017-08-04T11:42:05.059Z,60160
2017-08-04T11:43:05.066Z,50464
2017-08-04T11:44:05.065Z,69152
2017-08-04T11:45:05.063Z,89312
2017-08-04T11:46:04.954Z,34560
2017-08-04T11:47:05.057Z,32864
2017-08-04T11:48:05.032Z,31840
2017-08-04T11:49:04.431Z,32064
2017-08-04T11:50:05.041Z,44384
2017-08-04T11:51:04.934Z,43712
2017-08-04T11:52:04.734Z,47712
2017-08-04T11:53:05.042Z,137184
2017-08-04T11:54:04.728Z,42240
2017-08-04T11:55:05.027Z,43648
2017-08-04T11:56:05.024Z,50496
2017-08-04T11:57:04.737Z,109056
2017-08-04T11:58:05.026Z,89984
2017-08-04T11:59:05.027Z,55296
2017-08-04T12:00:05.015Z,147648
2017-08-04T12:01:04.706Z,106144
2017-08-04T12:02:05.003Z,133888
2017-08-04T12:03:05.006Z,55904
2017-08-04T12:04:05.002Z,55296
2017-08-04T12:05:05.015Z,61280
2017-08-04T12:06:05.001Z,55776
2017-08-04T12:07:05.015Z,47168
2017-08-04T12:08:04.695Z,47744
2017-08-04T12:09:05.002Z,39520
2017-08-04T12:10:04.702Z,34240
2017-08-04T12:11:04.700Z,30848
2017-08-04T12:12:04.987Z,30304
2017-08-04T12:13:04.697Z,29728
2017-08-04T12:14:04.689Z,28736
2017-08-04T12:15:04.688Z,28192
2017-08-04T12:16:04.986Z,27616
2017-08-04T12:17:04.685Z,27584
2017-08-04T12:18:04.989Z,31168
2017-08-04T12:19:04.683Z,62112
2017-08-04T12:20:04.682Z,103072
2017-08-04T12:21:04.680Z,133024
2017-08-04T12:22:18.310Z,122272
2017-08-04T12:23:04.983Z,114368
2017-08-04T12:24:04.979Z,95008
2017-08-04T12:25:04.992Z,98144
2017-08-04T12:26:04.667Z,105120
2017-08-04T12:27:04.664Z,108288
2017-08-04T12:28:04.866Z,125856
2017-08-04T12:29:04.981Z,69152
2017-08-04T12:30:04.675Z,28864
2017-08-04T12:31:04.361Z,32416
2017-08-04T12:32:04.672Z,34656
2017-08-04T12:33:04.870Z,100960
2017-08-04T12:34:04.675Z,80384
2017-08-04T12:35:04.664Z,103200
2017-08-04T12:36:04.666Z,56160
2017-08-04T12:37:04.659Z,56672
2017-08-04T12:38:05.174Z,51936
2017-08-04T12:39:04.978Z,62976
2017-08-04T12:40:04.669Z,72224
2017-08-04T12:41:04.958Z,148896
2017-08-04T12:42:04.963Z,79072
2017-08-04T12:43:04.962Z,169120
2017-08-04T12:44:04.962Z,133504
2017-08-04T12:45:04.967Z,148576
2017-08-04T12:46:04.955Z,115840
2017-08-04T12:47:04.964Z,152480
2017-08-04T12:48:04.948Z,147648
2017-08-04T12:49:04.954Z,105344
2017-08-04T12:50:04.958Z,143808
2017-08-04T12:51:04.948Z,76384
2017-08-04T12:52:04.344Z,101856
2017-08-04T12:53:04.948Z,102592
2017-08-04T12:54:04.970Z,74368
2017-08-04T12:55:04.635Z,65760
2017-08-04T12:56:04.957Z,55616
2017-08-04T12:57:04.963Z,54048
2017-08-04T12:58:04.633Z,50496
2017-08-04T12:59:04.944Z,51808
2017-08-04T13:00:04.946Z,53216
2017-08-04T13:01:04.643Z,52480
2017-08-04T13:02:04.959Z,48896
2017-08-04T13:03:04.947Z,53664
2017-08-04T13:04:04.949Z,59168
2017-08-04T13:05:04.634Z,27744
2017-08-04T13:06:04.945Z,21984
2017-08-04T13:07:04.943Z,19776
2017-08-04T13:08:04.933Z,23136
2017-08-04T13:09:05.139Z,28928
2017-08-04T13:10:04.950Z,35712
2017-08-04T13:11:04.933Z,44064
2017-08-04T13:12:04.940Z,28064
2017-08-04T13:13:04.936Z,21856
2017-08-04T13:14:05.126Z,21280
2017-08-04T13:15:04.923Z,25184
2017-08-04T13:16:04.930Z,29568
2017-08-04T13:17:04.926Z,28736
2017-08-04T13:18:04.927Z,26112
2017-08-04T13:19:04.938Z,29824
2017-08-04T13:20:04.941Z,32032
2017-08-04T13:21:04.612Z,36128
2017-08-04T13:22:04.913Z,40384
2017-08-04T13:23:04.923Z,50272